Time;durP1;ratioP1;P1;durP2;ratioP2;P2;SDS_P1;SDS_P2;PMS_P1;PMS_P2;Temp;Humidity;BMP_temperature;BMP_pressure;BME280_temperature;BME280_humidity;BME280_pressure;Samples;Min_cycle;Max_cycle;Signal;HPM_P1;HPM_P2
2021/12/22 00:08:02;;;;;;;2.87;2.33;;;;;;;;;;21160820;28;20702;-69
2021/12/22 00:18:04;;;;;;;2.07;1.77;;;-1.40;99.90;;;;;;21151923;28;20227;-69
2021/12/22 00:28:06;;;;;;;4.00;2.37;;;;;;;;;;21172675;27;20216;-69
2021/12/22 00:38:10;;;;;;;1.60;1.03;;;;;;;;;;21158338;28;20779;-69
2021/12/22 00:48:12;;;;;;;0.50;0.50;;;;;;;;;;21159827;28;20219;-69
2021/12/22 00:58:13;;;;;;;0.83;0.73;;;;;;;;;;21157831;28;20225;-69
2021/12/22 01:08:15;;;;;;;0.70;0.70;;;;;;;;;;21157885;28;20568;-69
2021/12/22 01:18:28;;;;;;;1.67;1.20;;;;;;;;;;21157094;28;20200;-69
2021/12/22 01:28:31;;;;;;;0.93;0.70;;;;;;;;;;21155771;28;20284;-69
2021/12/22 01:38:32;;;;;;;4.67;1.40;;;;;;;;;;21135736;28;20204;-69
2021/12/22 01:59:08;;;;;;;2.87;1.37;;;;;;;;;;21152898;28;20626;-69
2021/12/22 02:09:12;;;;;;;0.83;0.83;;;;;;;;;;21154089;28;20241;-69
2021/12/22 02:19:15;;;;;;;0.70;0.67;;;;;;;;;;21152214;28;20241;-69
2021/12/22 02:29:22;;;;;;;0.90;0.80;;;;;;;;;;21152650;28;20215;-70
2021/12/22 02:39:24;;;;;;;0.80;0.60;;;;;;;;;;21150794;28;20257;-70
2021/12/22 02:49:26;;;;;;;0.77;0.60;;;;;;;;;;21131943;28;20224;-70
2021/12/22 03:09:34;;;;;;;0.40;0.40;;;-2.00;99.90;;;;;;21158671;28;20697;-70
2021/12/22 03:19:36;;;;;;;0.80;0.80;;;;;;;;;;21207384;27;20228;-70
2021/12/22 03:29:38;;;;;;;0.57;0.53;;;;;;;;;;21243727;27;20215;-70
2021/12/22 03:39:41;;;;;;;0.60;0.60;;;;;;;;;;21156776;28;20216;-70
2021/12/22 03:49:43;;;;;;;0.60;0.60;;;;;;;;;;21145313;28;20281;-70
2021/12/22 03:59:44;;;;;;;3.37;0.87;;;;;;;;;;21163681;28;20229;-70
2021/12/22 04:09:46;;;;;;;0.33;0.33;;;;;;;;;;21163626;28;20756;-70
2021/12/22 04:19:48;;;;;;;0.57;0.40;;;;;;;;;;21161843;28;20203;-70
2021/12/22 04:29:50;;;;;;;0.50;0.50;;;;;;;;;;21160303;28;20687;-70
2021/12/22 04:39:52;;;;;;;1.27;0.87;;;;;;;;;;21157970;28;20219;-70
2021/12/22 04:49:54;;;;;;;1.53;1.23;;;;;;;;;;21157657;28;20219;-70
2021/12/22 04:59:55;;;;;;;0.60;0.60;;;;;;;;;;21159068;28;20204;-70
2021/12/22 05:09:57;;;;;;;1.27;1.07;;;;;;;;;;21157666;28;20239;-69
2021/12/22 05:19:59;;;;;;;1.10;1.00;;;;;;;;;;21160570;27;20210;-70
2021/12/22 05:30:02;;;;;;;0.93;0.60;;;-2.80;99.90;;;;;;21157262;27;20223;-69
2021/12/22 05:40:05;;;;;;;0.60;0.60;;;;;;;;;;21143218;28;20308;-70
2021/12/22 05:50:07;;;;;;;0.60;0.60;;;;;;;;;;21147859;28;20204;-69
2021/12/22 06:00:10;;;;;;;0.40;0.40;;;-2.80;99.90;;;;;;21147974;28;20752;-69
2021/12/22 06:10:14;;;;;;;0.40;0.40;;;-3.00;99.90;;;;;;21138688;28;20208;-70
2021/12/22 06:20:16;;;;;;;0.73;0.73;;;;;;;;;;21143011;28;20180;-70
2021/12/22 06:30:20;;;;;;;0.67;0.60;;;-3.10;99.90;;;;;;21141711;28;20208;-70
2021/12/22 06:40:22;;;;;;;0.97;0.87;;;;;;;;;;21141099;28;20188;-70
2021/12/22 06:50:24;;;;;;;0.97;0.83;;;-3.10;99.90;;;;;;21130750;28;20233;-69
2021/12/22 07:00:26;;;;;;;0.77;0.67;;;;;;;;;;21150291;27;20240;-70
2021/12/22 07:10:28;;;;;;;0.77;0.63;;;;;;;;;;21235253;27;20213;-70
2021/12/22 07:20:29;;;;;;;0.50;0.50;;;;;;;;;;21138531;28;20261;-70
2021/12/22 07:30:31;;;;;;;1.13;0.93;;;-3.30;99.90;;;;;;21143151;28;20195;-70
2021/12/22 07:40:33;;;;;;;0.60;0.60;;;;;;;;;;21124830;28;20268;-70
2021/12/22 07:50:35;;;;;;;0.40;0.40;;;;;;;;;;21169950;27;20323;-70
2021/12/22 08:00:37;;;;;;;0.50;0.50;;;;;;;;;;21170119;27;20211;-69
2021/12/22 08:10:39;;;;;;;0.77;0.77;;;;;;;;;;21162328;28;20559;-70
2021/12/22 08:20:41;;;;;;;0.23;0.23;;;;;;;;;;21140637;28;20212;-70
2021/12/22 08:30:43;;;;;;;0.40;0.40;;;-2.70;99.90;;;;;;21135321;27;20767;-70
2021/12/22 08:40:46;;;;;;;1.20;1.10;;;-2.70;99.90;;;;;;21136704;28;20228;-70
2021/12/22 08:50:48;;;;;;;0.70;0.70;;;;;;;;;;21144812;28;20216;-70
2021/12/22 09:00:50;;;;;;;2.90;0.90;;;;;;;;;;21163470;27;20277;-70
2021/12/22 09:10:52;;;;;;;2.17;1.43;;;;;;;;;;21211988;27;20241;-69
2021/12/22 09:20:54;;;;;;;1.53;1.37;;;;;;;;;;21157075;27;20296;-68
2021/12/22 09:30:56;;;;;;;1.33;1.00;;;;;;;;;;21153875;28;20274;-69
2021/12/22 09:41:03;;;;;;;1.10;1.00;;;-1.90;99.90;;;;;;21186850;27;20741;-69
2021/12/22 10:01:07;;;;;;;1.10;1.00;;;;;;;;;;21222656;27;20694;-69
2021/12/22 10:11:11;;;;;;;2.33;1.20;;;;;;;;;;21122162;28;20216;-69
2021/12/22 10:21:21;;;;;;;1.13;1.03;;;-1.20;99.90;;;;;;21119121;28;20212;-68
2021/12/22 10:31:38;;;;;;;5.37;1.70;;;-1.00;99.90;;;;;;21147813;28;20260;-68
2021/12/22 10:41:40;;;;;;;1.23;1.13;;;;;;;;;;21165883;28;20758;-68
2021/12/22 10:51:45;;;;;;;2.50;2.00;;;-0.40;99.90;;;;;;21168333;28;20208;-68
2021/12/22 11:01:54;;;;;;;0.83;0.83;;;;;;;;;;21128006;28;20710;-68
2021/12/22 11:11:57;;;;;;;0.83;0.83;;;-0.30;99.90;;;;;;21163878;27;20760;-68
2021/12/22 11:22:14;;;;;;;1.37;1.23;;;-0.10;99.90;;;;;;21143002;27;20346;-68
2021/12/22 11:32:17;;;;;;;1.60;1.40;;;;;;;;;;21200007;27;20237;-68
2021/12/22 11:42:23;;;;;;;1.83;1.37;;;0.10;99.90;;;;;;21136836;27;20282;-68
2021/12/22 11:52:31;;;;;;;1.90;1.70;;;0.10;99.90;;;;;;21143005;27;20207;-69
2021/12/22 12:02:34;;;;;;;1.63;1.20;;;0.40;99.90;;;;;;21138931;27;20284;-69
2021/12/22 12:12:46;;;;;;;1.57;1.40;;;0.50;99.90;;;;;;21130157;28;20220;-69
2021/12/22 12:22:48;;;;;;;1.17;0.90;;;;;;;;;;21160507;28;20647;-69
2021/12/22 12:32:50;;;;;;;1.00;0.67;;;;;;;;;;21161192;28;20212;-69
2021/12/22 12:42:58;;;;;;;2.13;1.70;;;0.00;99.90;;;;;;21160422;28;20208;-69
2021/12/22 12:53:03;;;;;;;0.70;0.70;;;0.10;99.90;;;;;;21159144;28;20674;-69
2021/12/22 13:03:07;;;;;;;1.13;0.67;;;0.00;99.90;;;;;;21159672;28;20211;-69
2021/12/22 13:13:15;;;;;;;1.77;1.63;;;;;;;;;;21157508;28;20216;-69
2021/12/22 13:23:20;;;;;;;0.90;0.90;;;-0.20;99.90;;;;;;21154344;28;20236;-69
2021/12/22 13:33:27;;;;;;;1.27;0.93;;;;;;;;;;21156074;28;20203;-69
2021/12/22 13:43:35;;;;;;;0.97;0.80;;;-0.20;99.90;;;;;;21155255;28;20216;-69
2021/12/22 13:53:39;;;;;;;0.70;0.70;;;;;;;;;;21154774;28;20284;-69
2021/12/22 14:03:42;;;;;;;1.10;0.83;;;-0.40;99.90;;;;;;21154605;28;20269;-69
2021/12/22 14:13:44;;;;;;;1.70;1.33;;;;;;;;;;21152653;28;20219;-69
2021/12/22 14:23:56;;;;;;;1.77;1.33;;;-0.30;99.90;;;;;;21151335;28;20277;-69
2021/12/22 14:34:06;;;;;;;1.10;1.00;;;-0.40;99.90;;;;;;21152582;28;20674;-69
2021/12/22 14:44:24;;;;;;;0.87;0.83;;;-0.50;99.90;;;;;;21152870;28;20265;-69
2021/12/22 14:54:26;;;;;;;3.73;1.67;;;;;;;;;;21151431;28;20759;-69
2021/12/22 15:04:28;;;;;;;1.70;1.60;;;-0.70;99.90;;;;;;21133946;28;20228;-69
2021/12/22 15:14:30;;;;;;;1.40;1.30;;;;;;;;;;21161238;28;20273;-69
2021/12/22 15:24:32;;;;;;;1.70;1.60;;;;;;;;;;21153467;28;20224;-68
2021/12/22 15:34:34;;;;;;;1.43;1.23;;;;;;;;;;21140213;28;20261;-69
2021/12/22 15:44:36;;;;;;;1.50;1.23;;;;;;;;;;21134622;28;20228;-69
2021/12/22 15:54:38;;;;;;;2.10;1.80;;;;;;;;;;21176031;27;20261;-68
2021/12/22 16:04:40;;;;;;;1.73;1.23;;;;;;;;;;21169279;27;20215;-68
2021/12/22 16:14:41;;;;;;;1.93;1.43;;;;;;;;;;21198721;27;20647;-68
2021/12/22 16:24:44;;;;;;;1.87;1.70;;;;;;;;;;21191248;27;20653;-68
2021/12/22 16:34:46;;;;;;;8.00;2.47;;;;;;;;;;21154736;27;20286;-68
2021/12/22 16:44:48;;;;;;;2.23;1.60;;;;;;;;;;21151542;27;20682;-69
2021/12/22 16:54:50;;;;;;;2.10;1.90;;;;;;;;;;21127008;27;20422;-68
2021/12/22 17:04:53;;;;;;;1.47;1.27;;;;;;;;;;21114210;28;20216;-69
2021/12/22 17:14:56;;;;;;;1.30;1.20;;;;;;;;;;21145050;22;20300;-65
2021/12/22 17:24:58;;;;;;;1.53;1.43;;;;;;;;;;21041805;28;20349;-64
2021/12/22 17:35:01;;;;;;;1.93;1.53;;;;;;;;;;21021182;28;20216;-64
2021/12/22 17:45:05;;;;;;;1.70;1.60;;;;;;;;;;21032285;28;20261;-64
2021/12/22 17:55:07;;;;;;;2.07;1.70;;;;;;;;;;21009754;28;20216;-64
2021/12/22 18:05:12;;;;;;;2.60;2.27;;;-1.60;99.90;;;;;;20990650;28;20288;-66
2021/12/22 18:15:15;;;;;;;1.63;1.53;;;;;;;;;;21022952;28;20240;-64
2021/12/22 18:25:17;;;;;;;1.53;1.43;;;;;;;;;;21012596;28;20224;-64
2021/12/22 18:35:20;;;;;;;1.80;1.67;;;;;;;;;;21028919;28;20262;-64
2021/12/22 18:45:23;;;;;;;2.90;2.43;;;;;;;;;;21021744;28;20715;-64
2021/12/22 18:55:25;;;;;;;1.77;1.67;;;;;;;;;;21051392;28;20243;-63
2021/12/22 19:05:28;;;;;;;3.70;2.80;;;;;;;;;;20997110;28;20774;-63
2021/12/22 19:15:31;;;;;;;2.43;2.17;;;;;;;;;;20988261;28;20216;-63
2021/12/22 19:36:01;;;;;;;3.03;1.97;;;;;;;;;;21032088;28;20285;-65
2021/12/22 19:46:04;;;;;;;1.47;1.37;;;;;;;;;;21028860;28;20240;-65
2021/12/22 19:56:06;;;;;;;0.93;0.87;;;;;;;;;;21029553;28;20208;-65
2021/12/22 20:06:09;;;;;;;2.30;2.07;;;;;;;;;;21029792;28;20262;-64
2021/12/22 20:16:12;;;;;;;1.73;1.60;;;;;;;;;;21019732;28;20559;-64
2021/12/22 20:26:14;;;;;;;2.93;1.53;;;;;;;;;;21009831;28;20228;-65
2021/12/22 20:36:17;;;;;;;2.37;1.70;;;;;;;;;;21093954;28;20298;-65
2021/12/22 20:46:20;;;;;;;2.03;1.47;;;;;;;;;;21017348;28;20236;-65
2021/12/22 20:56:22;;;;;;;2.10;1.60;;;;;;;;;;21016175;28;20216;-65
2021/12/22 21:06:24;;;;;;;1.53;1.23;;;;;;;;;;21022877;28;20220;-65
2021/12/22 21:16:27;;;;;;;1.83;1.33;;;;;;;;;;20936583;28;20225;-64
2021/12/22 21:26:28;;;;;;;1.57;1.43;;;;;;;;;;20921658;28;20205;-65
2021/12/22 21:36:30;;;;;;;1.30;1.20;;;;;;;;;;20921208;28;20578;-65
2021/12/22 21:46:33;;;;;;;1.83;1.63;;;;;;;;;;20937025;28;20294;-64
2021/12/22 21:56:35;;;;;;;3.37;2.53;;;;;;;;;;20920077;28;20213;-65
2021/12/22 22:06:36;;;;;;;2.07;1.60;;;;;;;;;;20918857;28;20696;-65
2021/12/22 22:16:40;;;;;;;2.37;1.80;;;-2.50;99.90;;;;;;20922091;28;20217;-65
2021/12/22 22:26:44;;;;;;;1.40;1.30;;;;;;;;;;21043433;28;20293;-65
2021/12/22 22:36:46;;;;;;;1.50;1.40;;;;;;;;;;21048347;28;20231;-65
2021/12/22 22:46:49;;;;;;;3.83;2.63;;;-2.70;99.90;;;;;;21039918;28;20255;-65
2021/12/22 22:56:52;;;;;;;2.20;2.00;;;;;;;;;;21042002;28;20604;-65
2021/12/22 23:06:54;;;;;;;1.10;0.90;;;;;;;;;;21057762;28;20259;-65
2021/12/22 23:16:59;;;;;;;1.20;1.10;;;;;;;;;;21110740;22;20243;-79
2021/12/22 23:27:01;;;;;;;1.13;1.00;;;;;;;;;;21144637;28;20220;-79
2021/12/22 23:37:08;;;;;;;0.93;0.90;;;;;;;;;;21153913;28;20204;-79
2021/12/22 23:57:30;;;;;;;0.90;0.83;;;;;;;;;;21142379;28;20284;-79
